createdAt,value
2023-02-25T00:13:32.111Z,2.83
2023-02-25T00:16:05.186Z,2.47
2023-02-25T00:18:37.380Z,2.72
2023-02-25T00:26:18.180Z,2.22
2023-02-25T00:28:50.721Z,1.45
2023-02-25T00:31:24.995Z,2.20
2023-02-25T00:33:57.134Z,1.92
2023-02-25T00:36:29.128Z,2.15
2023-02-25T00:39:03.914Z,2.28
2023-02-25T00:41:36.121Z,2.17
2023-02-25T00:44:08.247Z,2.40
2023-02-25T00:46:40.338Z,2.55
2023-02-25T00:49:21.177Z,1.55
2023-02-25T00:52:02.548Z,2.05
2023-02-25T00:54:37.175Z,1.75
2023-02-25T00:57:09.888Z,1.73
2023-02-25T00:59:41.944Z,1.73
2023-02-25T01:02:14.142Z,2.10
2023-02-25T01:04:46.236Z,2.70
2023-02-25T01:07:20.971Z,2.13
2023-02-25T01:09:57.961Z,2.03
2023-02-25T01:12:30.219Z,1.88
2023-02-25T01:15:02.460Z,1.40
2023-02-25T01:17:34.676Z,1.70
2023-02-25T01:20:12.389Z,1.20
2023-02-25T01:22:44.428Z,1.60
2023-02-25T01:25:19.181Z,1.73
2023-02-25T01:27:54.524Z,1.40
2023-02-25T01:30:26.604Z,1.65
2023-02-25T01:32:58.679Z,1.80
2023-02-25T01:35:30.768Z,1.58
2023-02-25T01:38:02.799Z,1.25
2023-02-25T01:40:38.023Z,1.60
2023-02-25T01:43:14.694Z,1.33
2023-02-25T01:45:46.720Z,1.33
2023-02-25T01:48:23.066Z,1.42
2023-02-25T01:51:03.021Z,1.42
2023-02-25T01:53:38.570Z,1.58
2023-02-25T01:56:17.686Z,1.58
2023-02-25T01:58:50.066Z,1.85
2023-02-25T02:01:25.693Z,1.90
2023-02-25T02:03:57.973Z,1.35
2023-02-25T02:06:34.596Z,1.20
2023-02-25T02:09:09.314Z,1.17
2023-02-25T02:11:44.194Z,1.55
2023-02-25T02:14:18.968Z,1.30
2023-02-25T02:17:06.040Z,0.60
2023-02-25T07:06:47.106Z,0.17
2023-02-25T07:09:21.738Z,0.35
2023-02-25T07:11:53.820Z,0.22
2023-02-25T07:14:27.270Z,0.13
2023-02-25T07:16:59.249Z,0.32
2023-02-25T07:19:31.300Z,0.25
2023-02-25T07:22:03.379Z,0.75
2023-02-25T07:24:38.313Z,0.10
2023-02-25T07:27:13.033Z,0.22
2023-02-25T07:29:45.031Z,0.32
2023-02-25T07:32:17.263Z,0.20
2023-02-25T07:34:49.424Z,0.90
2023-02-25T07:37:21.478Z,0.40
2023-02-25T07:39:58.318Z,0.52
2023-02-25T07:42:30.394Z,0.52
2023-02-25T07:45:02.468Z,0.17
2023-02-25T07:47:34.542Z,0.40
2023-02-25T07:50:08.021Z,0.50
2023-02-25T07:52:40.212Z,0.30
2023-02-25T07:55:14.930Z,0.05
2023-02-25T07:57:46.928Z,0.50
2023-02-25T08:00:19.626Z,0.28
2023-02-25T08:02:51.719Z,0.68
2023-02-25T08:05:24.317Z,0.20
2023-02-25T08:07:56.298Z,0.22
2023-02-25T08:10:31.365Z,0.20
2023-02-25T08:13:03.390Z,0.65
2023-02-25T08:15:35.480Z,0.28
2023-02-25T08:18:07.695Z,0.32
2023-02-25T08:20:39.713Z,0.22
2023-02-25T08:23:13.493Z,0.13
2023-02-25T08:25:52.934Z,0.10
2023-02-25T08:28:26.917Z,0.22
2023-02-25T08:31:00.267Z,0.38
2023-02-25T08:33:32.429Z,0.25
2023-02-25T08:36:09.719Z,0.22
2023-02-25T08:38:42.676Z,0.80
2023-02-25T08:41:17.509Z,0.20
2023-02-25T08:43:52.078Z,0.82
2023-02-25T08:46:26.689Z,0.25
2023-02-25T08:48:58.846Z,0.40
2023-02-25T08:51:34.899Z,0.38
2023-02-25T08:54:08.979Z,0.30
2023-02-25T08:56:44.869Z,0.13
2023-02-25T08:59:17.814Z,0.38
2023-02-25T09:01:51.794Z,0.35
2023-02-25T09:04:30.158Z,0.28
2023-02-25T09:07:03.080Z,0.30
2023-02-25T09:09:35.260Z,0.20
2023-02-25T09:12:10.582Z,0.40
2023-02-25T09:14:42.605Z,0.63
2023-02-25T09:17:14.622Z,0.43
2023-02-25T09:19:46.671Z,0.20
2023-02-25T09:22:19.852Z,0.30
2023-02-25T09:24:51.954Z,0.15
2023-02-25T09:27:27.016Z,0.45
2023-02-25T09:29:59.070Z,0.30
2023-02-25T09:32:31.942Z,0.35
2023-02-25T09:35:07.383Z,0.30
2023-02-25T09:37:39.446Z,0.30
2023-02-25T09:40:18.468Z,0.40
2023-02-25T09:43:06.508Z,0.20
2023-02-25T09:45:38.793Z,0.57
2023-02-25T09:48:17.773Z,0.10
2023-02-25T09:50:57.550Z,0.38
2023-02-25T09:53:34.133Z,0.10
2023-02-25T09:56:07.916Z,0.10
2023-02-25T09:58:46.791Z,0.43
2023-02-25T10:01:42.059Z,0.40
2023-02-25T10:04:23.518Z,0.45
2023-02-25T10:06:56.218Z,0.43
2023-02-25T10:09:34.853Z,0.32
2023-02-25T10:12:18.370Z,0.70
2023-02-25T10:15:15.930Z,0.73
2023-02-25T10:18:19.324Z,0.68
2023-02-25T10:21:04.216Z,0.45
2023-02-25T10:23:57.509Z,0.63
2023-02-25T10:26:33.728Z,0.45
2023-02-25T10:29:07.721Z,0.20
2023-02-25T10:31:46.850Z,0.38
2023-02-25T10:34:22.310Z,0.98
2023-02-25T10:36:56.521Z,0.88
2023-02-25T10:39:29.331Z,0.30
2023-02-25T10:42:01.912Z,0.90
2023-02-25T10:44:33.984Z,2.38
2023-02-25T10:47:13.564Z,1.25
2023-02-25T10:50:15.526Z,0.32
2023-02-25T10:53:01.039Z,0.35
2023-02-25T10:55:51.903Z,0.75
2023-02-25T10:58:27.989Z,1.40
2023-02-25T11:01:05.647Z,1.75
2023-02-25T11:03:46.484Z,5.57
2023-02-25T11:06:23.383Z,1.60
2023-02-25T11:08:58.670Z,1.13
2023-02-25T11:11:32.510Z,1.85
2023-02-25T11:14:07.473Z,0.65
2023-02-25T11:16:41.974Z,2.53
2023-02-25T11:19:23.577Z,0.65
2023-02-25T11:21:57.946Z,0.70
2023-02-25T11:24:33.499Z,0.85
2023-02-25T11:27:07.852Z,0.10
2023-02-25T11:29:43.462Z,0.75
2023-02-25T11:32:18.826Z,0.68
2023-02-25T11:34:56.916Z,0.10
2023-02-25T11:40:24.564Z,0.50
2023-02-25T11:43:17.214Z,0.50
2023-02-25T11:45:55.634Z,0.75
2023-02-25T11:48:31.232Z,0.20
2023-02-25T11:51:22.902Z,0.52
2023-02-25T11:54:24.658Z,0.43
2023-02-25T11:57:02.198Z,0.35
2023-02-25T11:59:40.655Z,0.38
2023-02-25T12:02:30.762Z,0.43
2023-02-25T12:05:32.010Z,0.40
2023-02-25T12:08:17.487Z,0.20
2023-02-25T12:11:19.258Z,0.40
2023-02-25T12:14:15.924Z,0.63
2023-02-25T12:17:20.530Z,0.35
2023-02-25T12:20:34.590Z,0.65
2023-02-25T12:23:44.399Z,0.45
2023-02-25T12:26:29.682Z,0.60
2023-02-25T12:29:25.370Z,0.80
2023-02-25T12:32:20.467Z,0.75
2023-02-25T12:35:29.924Z,0.65
2023-02-25T12:41:06.041Z,0.38
2023-02-25T12:43:49.256Z,0.30
2023-02-25T12:46:44.537Z,0.10
2023-02-25T12:49:43.895Z,0.90
2023-02-25T12:52:35.658Z,0.60
2023-02-25T12:55:30.296Z,0.38
2023-02-25T12:58:33.816Z,0.68
2023-02-25T13:04:18.969Z,0.50
2023-02-25T13:07:18.319Z,0.30
2023-02-25T13:21:02.100Z,0.63
2023-02-25T13:23:56.601Z,0.57
2023-02-25T13:34:37.908Z,0.70
2023-02-25T13:37:28.097Z,0.65
2023-02-25T13:40:27.077Z,0.60
2023-02-25T13:54:23.235Z,0.40
2023-02-25T13:57:10.322Z,0.43
2023-02-25T13:59:57.569Z,0.52
2023-02-25T14:05:56.268Z,0.70
2023-02-25T14:09:18.347Z,0.60
2023-02-25T14:25:39.216Z,0.52
2023-02-25T14:44:29.616Z,0.70
2023-02-25T14:47:07.062Z,0.57
2023-02-25T14:49:43.560Z,0.30
2023-02-25T14:55:25.430Z,0.85
2023-02-25T15:01:10.265Z,0.55
2023-02-25T15:04:19.167Z,0.95
2023-02-25T15:10:08.444Z,0.57
2023-02-25T15:13:05.618Z,0.55
2023-02-25T15:21:42.549Z,0.43
2023-02-25T15:24:39.754Z,0.80
2023-02-25T15:27:41.721Z,0.32
2023-02-25T15:30:16.508Z,0.60
2023-02-25T15:33:15.237Z,0.28
2023-02-25T15:35:58.616Z,0.20
2023-02-25T15:38:43.880Z,0.50
2023-02-25T15:41:57.694Z,0.50
2023-02-25T15:44:38.227Z,0.88
2023-02-25T15:47:29.443Z,0.30
2023-02-25T17:26:35.245Z,0.40
2023-02-25T17:29:15.310Z,0.40
2023-02-25T17:42:03.468Z,1.08
2023-02-25T17:44:47.534Z,0.60
2023-02-25T21:20:31.735Z,1.00
2023-02-25T21:23:06.351Z,0.82
2023-02-25T21:25:38.354Z,1.10
2023-02-25T21:28:10.344Z,0.60
2023-02-25T21:30:43.225Z,0.75
2023-02-25T22:52:13.145Z,0.88
2023-02-25T22:54:47.865Z,0.93
2023-02-25T22:57:19.897Z,1.05
2023-02-25T22:59:52.123Z,0.75
2023-02-25T23:07:28.050Z,0.98
2023-02-25T23:10:03.056Z,0.93
2023-02-25T23:20:13.823Z,0.63
2023-02-25T23:32:59.876Z,0.47
2023-02-25T23:35:32.900Z,0.75
2023-02-25T23:48:18.930Z,0.63
2023-02-25T23:50:50.987Z,0.57
2023-02-25T23:55:57.626Z,0.38
